Pagrindinis puslapis
METAR-TAF:

METAR-TAF

Oro uostai :

Stokholmas-Skavsta, Švedija

platuma: 58-47N, ilguma: 016-55E, Aukštis: 43 m

Dabartinis oras

Ataskaita buvo paskelbta 20 minutes, ne 01:50 UTC
Vėjas 5 kt iš Vakarų
Temperatūra 13°C
Drėgmė 94%
Slėgis 1023 hPa
Matomumas 10 km arba daugiau
nėra debesų žemiau 1500 m ir nėra kamuolinių lietaus debesų

METAR: ESKN 240150Z 28005KT CAVOK 13/12 Q1023

Laikas: 04:10 (02:10 UTC)

Prognozė

Ataskaita buvo paskelbta 2 valandos ir 40 minutes, ne 23:30 UTC
Prognozė galioja nuo 24 metu 00 UTC su 24 metu 24 UTC
Vėjas 14 kt iš Vakarų
Matomumas 10 km arba daugiau
nėra debesų žemiau 1500 m ir nėra kamuolinių lietaus debesų
Tikimybė 40%
nuo 24 metu 01 UTC su 24 metu 07 UTC
Su prošvaistėmis ne aukštis 400 ft

TAF: ESKN 232330Z 2400/2424 26014KT CAVOK PROB40 2401/2407 BKN004

Orai ataskaitas ir orų prognozės (METAR, TAF).

turimą stotys yra geltonos ir raudonos taškus žemėlapyje.

Perkelti pele per norėdami pamatyti stoties vardą.

Tada spustelėkite, norėdami matyti oro stebėjimo ir prognozės.

Norėdami pakeisti žemėlapį: spustelėkite ant žalios mygtukų su juodo kryžiaus žemyn,; žalią mygtuką su brūkšneliu, jei norite nutolinti; arba žalių rodyklių gretimoms žemėlapius.


METAR-TAF: